sensor_id;sensor_type;location;lat;lon;timestamp;P1;P2;P0
62846;PMS5003;49477;35.676;139.586;2023-05-07T00:02:22;2;2;
62846;PMS5003;49477;35.676;139.586;2023-05-07T00:04:52;7;5;
62846;PMS5003;49477;35.676;139.586;2023-05-07T00:07:21;2;2;
62846;PMS5003;49477;35.676;139.586;2023-05-07T00:09:51;2;2;
62846;PMS5003;49477;35.676;139.586;2023-05-07T00:12:20;4;3;
62846;PMS5003;49477;35.676;139.586;2023-05-07T00:14:50;6;5;
62846;PMS5003;49477;35.676;139.586;2023-05-07T00:17:20;3;3;
62846;PMS5003;49477;35.676;139.586;2023-05-07T00:19:49;4;3;
62846;PMS5003;49477;35.676;139.586;2023-05-07T00:22:19;3;3;
62846;PMS5003;49477;35.676;139.586;2023-05-07T00:24:48;7;4;
62846;PMS5003;49477;35.676;139.586;2023-05-07T00:27:18;6;6;
62846;PMS5003;49477;35.676;139.586;2023-05-07T00:29:47;6;4;
62846;PMS5003;49477;35.676;139.586;2023-05-07T00:32:17;5;5;
62846;PMS5003;49477;35.676;139.586;2023-05-07T00:34:46;4;4;
62846;PMS5003;49477;35.676;139.586;2023-05-07T00:37:16;6;5;
62846;PMS5003;49477;35.676;139.586;2023-05-07T00:39:45;4;4;
62846;PMS5003;49477;35.676;139.586;2023-05-07T00:42:15;8;6;
62846;PMS5003;49477;35.676;139.586;2023-05-07T00:44:44;9;6;
62846;PMS5003;49477;35.676;139.586;2023-05-07T00:47:13;4;4;
62846;PMS5003;49477;35.676;139.586;2023-05-07T00:49:44;6;5;
62846;PMS5003;49477;35.676;139.586;2023-05-07T00:52:14;5;5;
62846;PMS5003;49477;35.676;139.586;2023-05-07T00:54:44;4;3;
62846;PMS5003;49477;35.676;139.586;2023-05-07T00:57:14;5;5;
62846;PMS5003;49477;35.676;139.586;2023-05-07T00:59:43;3;3;
62846;PMS5003;49477;35.676;139.586;2023-05-07T01:02:13;8;4;
62846;PMS5003;49477;35.676;139.586;2023-05-07T01:04:42;3;2;
62846;PMS5003;49477;35.676;139.586;2023-05-07T01:07:12;5;5;
62846;PMS5003;49477;35.676;139.586;2023-05-07T01:09:42;6;6;
62846;PMS5003;49477;35.676;139.586;2023-05-07T01:12:11;6;5;
62846;PMS5003;49477;35.676;139.586;2023-05-07T01:14:42;5;4;
62846;PMS5003;49477;35.676;139.586;2023-05-07T01:17:11;7;5;
62846;PMS5003;49477;35.676;139.586;2023-05-07T01:19:40;5;5;
62846;PMS5003;49477;35.676;139.586;2023-05-07T01:22:10;5;5;
62846;PMS5003;49477;35.676;139.586;2023-05-07T01:24:42;4;4;
62846;PMS5003;49477;35.676;139.586;2023-05-07T01:27:12;4;4;
62846;PMS5003;49477;35.676;139.586;2023-05-07T01:29:41;5;5;
62846;PMS5003;49477;35.676;139.586;2023-05-07T01:32:11;6;5;
62846;PMS5003;49477;35.676;139.586;2023-05-07T01:34:41;4;4;
62846;PMS5003;49477;35.676;139.586;2023-05-07T01:37:12;5;3;
62846;PMS5003;49477;35.676;139.586;2023-05-07T01:39:42;4;4;
62846;PMS5003;49477;35.676;139.586;2023-05-07T01:42:11;4;4;
62846;PMS5003;49477;35.676;139.586;2023-05-07T01:44:41;4;4;
62846;PMS5003;49477;35.676;139.586;2023-05-07T01:47:10;7;5;
62846;PMS5003;49477;35.676;139.586;2023-05-07T01:49:41;5;3;
62846;PMS5003;49477;35.676;139.586;2023-05-07T01:52:11;6;5;
62846;PMS5003;49477;35.676;139.586;2023-05-07T01:54:40;3;3;
62846;PMS5003;49477;35.676;139.586;2023-05-07T01:57:10;5;4;
62846;PMS5003;49477;35.676;139.586;2023-05-07T01:59:39;5;5;
62846;PMS5003;49477;35.676;139.586;2023-05-07T02:02:09;4;4;
62846;PMS5003;49477;35.676;139.586;2023-05-07T02:04:39;4;4;
62846;PMS5003;49477;35.676;139.586;2023-05-07T02:07:08;4;4;
62846;PMS5003;49477;35.676;139.586;2023-05-07T02:09:38;4;3;
62846;PMS5003;49477;35.676;139.586;2023-05-07T02:12:07;4;4;
62846;PMS5003;49477;35.676;139.586;2023-05-07T02:14:36;4;4;
62846;PMS5003;49477;35.676;139.586;2023-05-07T02:17:07;3;2;
62846;PMS5003;49477;35.676;139.586;2023-05-07T02:19:36;4;4;
62846;PMS5003;49477;35.676;139.586;2023-05-07T02:22:06;3;3;
62846;PMS5003;49477;35.676;139.586;2023-05-07T02:24:35;3;3;
62846;PMS5003;49477;35.676;139.586;2023-05-07T02:27:04;2;2;
62846;PMS5003;49477;35.676;139.586;2023-05-07T02:29:34;4;4;
62846;PMS5003;49477;35.676;139.586;2023-05-07T02:32:04;3;3;
62846;PMS5003;49477;35.676;139.586;2023-05-07T02:34:33;4;4;
62846;PMS5003;49477;35.676;139.586;2023-05-07T02:37:03;1;1;
62846;PMS5003;49477;35.676;139.586;2023-05-07T02:39:32;3;3;
62846;PMS5003;49477;35.676;139.586;2023-05-07T02:42:02;4;3;
62846;PMS5003;49477;35.676;139.586;2023-05-07T02:44:31;5;3;
62846;PMS5003;49477;35.676;139.586;2023-05-07T02:47:00;5;4;
62846;PMS5003;49477;35.676;139.586;2023-05-07T02:49:31;3;3;
62846;PMS5003;49477;35.676;139.586;2023-05-07T02:52:00;4;4;
62846;PMS5003;49477;35.676;139.586;2023-05-07T02:54:30;3;3;
62846;PMS5003;49477;35.676;139.586;2023-05-07T02:56:59;3;3;
62846;PMS5003;49477;35.676;139.586;2023-05-07T02:59:29;3;3;
62846;PMS5003;49477;35.676;139.586;2023-05-07T03:01:59;2;2;
62846;PMS5003;49477;35.676;139.586;2023-05-07T03:04:28;4;3;
62846;PMS5003;49477;35.676;139.586;2023-05-07T03:06:58;3;3;
62846;PMS5003;49477;35.676;139.586;2023-05-07T03:09:27;5;3;
62846;PMS5003;49477;35.676;139.586;2023-05-07T03:11:56;2;0;
62846;PMS5003;49477;35.676;139.586;2023-05-07T03:14:26;2;2;
62846;PMS5003;49477;35.676;139.586;2023-05-07T03:16:55;3;3;
62846;PMS5003;49477;35.676;139.586;2023-05-07T03:19:25;1;1;
62846;PMS5003;49477;35.676;139.586;2023-05-07T03:21:54;3;3;
62846;PMS5003;49477;35.676;139.586;2023-05-07T03:24:24;6;3;
62846;PMS5003;49477;35.676;139.586;2023-05-07T03:26:53;3;3;
62846;PMS5003;49477;35.676;139.586;2023-05-07T03:29:24;4;4;
62846;PMS5003;49477;35.676;139.586;2023-05-07T03:31:53;4;4;
62846;PMS5003;49477;35.676;139.586;2023-05-07T03:34:23;5;5;
62846;PMS5003;49477;35.676;139.586;2023-05-07T03:36:52;3;3;
62846;PMS5003;49477;35.676;139.586;2023-05-07T03:39:22;3;3;
62846;PMS5003;49477;35.676;139.586;2023-05-07T03:41:51;4;3;
62846;PMS5003;49477;35.676;139.586;2023-05-07T03:44:21;9;6;
62846;PMS5003;49477;35.676;139.586;2023-05-07T03:46:50;7;6;
62846;PMS5003;49477;35.676;139.586;2023-05-07T03:49:20;5;5;
62846;PMS5003;49477;35.676;139.586;2023-05-07T03:51:49;5;5;
62846;PMS5003;49477;35.676;139.586;2023-05-07T03:54:19;4;4;
62846;PMS5003;49477;35.676;139.586;2023-05-07T03:56:48;4;4;
62846;PMS5003;49477;35.676;139.586;2023-05-07T03:59:18;4;4;
62846;PMS5003;49477;35.676;139.586;2023-05-07T04:01:47;1;1;
62846;PMS5003;49477;35.676;139.586;2023-05-07T04:04:17;8;4;
62846;PMS5003;49477;35.676;139.586;2023-05-07T04:06:46;2;2;
62846;PMS5003;49477;35.676;139.586;2023-05-07T04:09:16;4;2;
62846;PMS5003;49477;35.676;139.586;2023-05-07T04:11:45;4;4;
62846;PMS5003;49477;35.676;139.586;2023-05-07T04:14:15;3;3;
62846;PMS5003;49477;35.676;139.586;2023-05-07T04:16:44;4;3;
62846;PMS5003;49477;35.676;139.586;2023-05-07T04:19:14;3;3;
62846;PMS5003;49477;35.676;139.586;2023-05-07T04:21:43;2;2;
62846;PMS5003;49477;35.676;139.586;2023-05-07T04:24:13;2;2;
62846;PMS5003;49477;35.676;139.586;2023-05-07T04:26:42;4;2;
62846;PMS5003;49477;35.676;139.586;2023-05-07T04:29:12;3;3;
62846;PMS5003;49477;35.676;139.586;2023-05-07T04:31:41;2;2;
62846;PMS5003;49477;35.676;139.586;2023-05-07T04:34:11;1;1;
62846;PMS5003;49477;35.676;139.586;2023-05-07T04:36:41;3;3;
62846;PMS5003;49477;35.676;139.586;2023-05-07T04:39:10;1;1;
62846;PMS5003;49477;35.676;139.586;2023-05-07T04:41:40;3;3;
62846;PMS5003;49477;35.676;139.586;2023-05-07T04:44:09;2;2;
62846;PMS5003;49477;35.676;139.586;2023-05-07T04:46:39;4;2;
62846;PMS5003;49477;35.676;139.586;2023-05-07T04:49:08;4;4;
62846;PMS5003;49477;35.676;139.586;2023-05-07T04:51:38;3;3;
62846;PMS5003;49477;35.676;139.586;2023-05-07T04:54:07;3;3;
62846;PMS5003;49477;35.676;139.586;2023-05-07T04:56:37;3;3;
62846;PMS5003;49477;35.676;139.586;2023-05-07T04:59:06;4;2;
62846;PMS5003;49477;35.676;139.586;2023-05-07T05:01:36;1;1;
62846;PMS5003;49477;35.676;139.586;2023-05-07T05:04:06;2;2;
62846;PMS5003;49477;35.676;139.586;2023-05-07T05:06:36;3;3;
62846;PMS5003;49477;35.676;139.586;2023-05-07T05:09:05;3;3;
62846;PMS5003;49477;35.676;139.586;2023-05-07T05:11:35;2;2;
62846;PMS5003;49477;35.676;139.586;2023-05-07T05:14:04;3;2;
62846;PMS5003;49477;35.676;139.586;2023-05-07T05:16:34;1;1;
62846;PMS5003;49477;35.676;139.586;2023-05-07T05:19:03;1;1;
62846;PMS5003;49477;35.676;139.586;2023-05-07T05:21:33;5;2;
62846;PMS5003;49477;35.676;139.586;2023-05-07T05:24:02;2;2;
62846;PMS5003;49477;35.676;139.586;2023-05-07T05:26:31;2;2;
62846;PMS5003;49477;35.676;139.586;2023-05-07T05:29:01;2;1;
62846;PMS5003;49477;35.676;139.586;2023-05-07T05:31:30;3;3;
62846;PMS5003;49477;35.676;139.586;2023-05-07T05:34:00;0;0;
62846;PMS5003;49477;35.676;139.586;2023-05-07T05:36:29;2;1;
62846;PMS5003;49477;35.676;139.586;2023-05-07T05:38:59;1;1;
62846;PMS5003;49477;35.676;139.586;2023-05-07T05:41:28;1;1;
62846;PMS5003;49477;35.676;139.586;2023-05-07T05:43:58;0;0;
62846;PMS5003;49477;35.676;139.586;2023-05-07T05:46:27;0;0;
62846;PMS5003;49477;35.676;139.586;2023-05-07T05:48:57;0;0;
62846;PMS5003;49477;35.676;139.586;2023-05-07T05:51:26;0;0;
62846;PMS5003;49477;35.676;139.586;2023-05-07T05:53:56;0;0;
62846;PMS5003;49477;35.676;139.586;2023-05-07T05:56:25;0;0;
62846;PMS5003;49477;35.676;139.586;2023-05-07T05:58:55;0;0;
62846;PMS5003;49477;35.676;139.586;2023-05-07T06:01:24;0;0;
62846;PMS5003;49477;35.676;139.586;2023-05-07T06:03:54;0;0;
62846;PMS5003;49477;35.676;139.586;2023-05-07T06:06:23;0;0;
62846;PMS5003;49477;35.676;139.586;2023-05-07T06:08:53;0;0;
62846;PMS5003;49477;35.676;139.586;2023-05-07T06:11:22;1;1;
62846;PMS5003;49477;35.676;139.586;2023-05-07T06:13:52;0;0;
62846;PMS5003;49477;35.676;139.586;2023-05-07T06:16:21;1;1;
62846;PMS5003;49477;35.676;139.586;2023-05-07T06:18:51;0;0;
62846;PMS5003;49477;35.676;139.586;2023-05-07T06:21:21;0;0;
62846;PMS5003;49477;35.676;139.586;2023-05-07T06:23:50;0;0;
62846;PMS5003;49477;35.676;139.586;2023-05-07T06:26:20;0;0;
62846;PMS5003;49477;35.676;139.586;2023-05-07T06:28:49;0;0;
62846;PMS5003;49477;35.676;139.586;2023-05-07T06:31:19;0;0;
62846;PMS5003;49477;35.676;139.586;2023-05-07T06:33:49;0;0;
62846;PMS5003;49477;35.676;139.586;2023-05-07T06:36:18;1;0;
62846;PMS5003;49477;35.676;139.586;2023-05-07T06:38:47;0;0;
62846;PMS5003;49477;35.676;139.586;2023-05-07T06:41:17;0;0;
62846;PMS5003;49477;35.676;139.586;2023-05-07T06:43:46;0;0;
62846;PMS5003;49477;35.676;139.586;2023-05-07T06:46:16;0;0;
62846;PMS5003;49477;35.676;139.586;2023-05-07T06:48:45;0;0;
62846;PMS5003;49477;35.676;139.586;2023-05-07T06:51:15;0;0;
62846;PMS5003;49477;35.676;139.586;2023-05-07T06:53:44;0;0;
62846;PMS5003;49477;35.676;139.586;2023-05-07T06:56:14;0;0;
62846;PMS5003;49477;35.676;139.586;2023-05-07T06:58:43;0;0;
62846;PMS5003;49477;35.676;139.586;2023-05-07T07:01:13;0;0;
62846;PMS5003;49477;35.676;139.586;2023-05-07T07:03:42;0;0;
62846;PMS5003;49477;35.676;139.586;2023-05-07T07:06:12;0;0;
62846;PMS5003;49477;35.676;139.586;2023-05-07T07:08:42;0;0;
62846;PMS5003;49477;35.676;139.586;2023-05-07T07:11:11;0;0;
62846;PMS5003;49477;35.676;139.586;2023-05-07T07:13:39;0;0;
62846;PMS5003;49477;35.676;139.586;2023-05-07T07:16:09;0;0;
62846;PMS5003;49477;35.676;139.586;2023-05-07T07:18:39;0;0;
62846;PMS5003;49477;35.676;139.586;2023-05-07T07:21:08;0;0;
62846;PMS5003;49477;35.676;139.586;2023-05-07T07:23:38;0;0;
62846;PMS5003;49477;35.676;139.586;2023-05-07T07:26:07;0;0;
62846;PMS5003;49477;35.676;139.586;2023-05-07T07:28:42;0;0;
62846;PMS5003;49477;35.676;139.586;2023-05-07T07:31:12;0;0;
62846;PMS5003;49477;35.676;139.586;2023-05-07T07:33:41;0;0;
62846;PMS5003;49477;35.676;139.586;2023-05-07T07:36:11;0;0;
62846;PMS5003;49477;35.676;139.586;2023-05-07T07:38:40;0;0;
62846;PMS5003;49477;35.676;139.586;2023-05-07T07:41:09;0;0;
62846;PMS5003;49477;35.676;139.586;2023-05-07T07:43:39;0;0;
62846;PMS5003;49477;35.676;139.586;2023-05-07T07:46:08;0;0;
62846;PMS5003;49477;35.676;139.586;2023-05-07T07:48:43;1;1;
62846;PMS5003;49477;35.676;139.586;2023-05-07T07:51:12;1;0;
62846;PMS5003;49477;35.676;139.586;2023-05-07T07:53:42;0;0;
62846;PMS5003;49477;35.676;139.586;2023-05-07T07:56:11;0;0;
62846;PMS5003;49477;35.676;139.586;2023-05-07T07:58:41;0;0;
62846;PMS5003;49477;35.676;139.586;2023-05-07T08:01:10;3;0;
62846;PMS5003;49477;35.676;139.586;2023-05-07T08:03:40;1;1;
62846;PMS5003;49477;35.676;139.586;2023-05-07T08:06:09;0;0;
62846;PMS5003;49477;35.676;139.586;2023-05-07T08:08:39;0;0;
62846;PMS5003;49477;35.676;139.586;2023-05-07T08:11:08;0;0;
62846;PMS5003;49477;35.676;139.586;2023-05-07T08:13:38;0;0;
62846;PMS5003;49477;35.676;139.586;2023-05-07T08:16:07;1;1;
62846;PMS5003;49477;35.676;139.586;2023-05-07T08:18:37;0;0;
62846;PMS5003;49477;35.676;139.586;2023-05-07T08:21:06;0;0;
62846;PMS5003;49477;35.676;139.586;2023-05-07T08:23:36;0;0;
62846;PMS5003;49477;35.676;139.586;2023-05-07T08:26:05;1;1;
62846;PMS5003;49477;35.676;139.586;2023-05-07T08:28:36;0;0;
62846;PMS5003;49477;35.676;139.586;2023-05-07T08:31:05;0;0;
62846;PMS5003;49477;35.676;139.586;2023-05-07T08:33:35;0;0;
62846;PMS5003;49477;35.676;139.586;2023-05-07T08:36:04;0;0;
62846;PMS5003;49477;35.676;139.586;2023-05-07T08:38:34;0;0;
62846;PMS5003;49477;35.676;139.586;2023-05-07T08:41:03;0;0;
62846;PMS5003;49477;35.676;139.586;2023-05-07T08:43:33;0;0;
62846;PMS5003;49477;35.676;139.586;2023-05-07T08:46:09;0;0;
62846;PMS5003;49477;35.676;139.586;2023-05-07T08:48:39;0;0;
62846;PMS5003;49477;35.676;139.586;2023-05-07T08:51:12;1;1;
62846;PMS5003;49477;35.676;139.586;2023-05-07T08:53:44;0;0;
62846;PMS5003;49477;35.676;139.586;2023-05-07T08:56:15;0;0;
62846;PMS5003;49477;35.676;139.586;2023-05-07T08:58:44;0;0;
62846;PMS5003;49477;35.676;139.586;2023-05-07T09:01:15;0;0;
62846;PMS5003;49477;35.676;139.586;2023-05-07T09:03:46;1;1;
62846;PMS5003;49477;35.676;139.586;2023-05-07T09:06:17;1;1;
62846;PMS5003;49477;35.676;139.586;2023-05-07T09:08:49;0;0;
62846;PMS5003;49477;35.676;139.586;2023-05-07T09:11:20;1;1;
62846;PMS5003;49477;35.676;139.586;2023-05-07T09:13:53;1;1;
62846;PMS5003;49477;35.676;139.586;2023-05-07T09:16:24;3;1;
62846;PMS5003;49477;35.676;139.586;2023-05-07T09:18:57;2;2;
62846;PMS5003;49477;35.676;139.586;2023-05-07T09:21:26;1;1;
62846;PMS5003;49477;35.676;139.586;2023-05-07T09:23:57;2;1;
62846;PMS5003;49477;35.676;139.586;2023-05-07T09:26:26;2;2;
62846;PMS5003;49477;35.676;139.586;2023-05-07T09:28:56;0;0;
62846;PMS5003;49477;35.676;139.586;2023-05-07T09:31:25;1;1;
62846;PMS5003;49477;35.676;139.586;2023-05-07T09:33:55;1;1;
62846;PMS5003;49477;35.676;139.586;2023-05-07T09:36:24;1;1;
62846;PMS5003;49477;35.676;139.586;2023-05-07T09:38:54;0;0;
62846;PMS5003;49477;35.676;139.586;2023-05-07T09:41:23;1;1;
62846;PMS5003;49477;35.676;139.586;2023-05-07T09:43:54;2;2;
62846;PMS5003;49477;35.676;139.586;2023-05-07T09:46:25;1;1;
62846;PMS5003;49477;35.676;139.586;2023-05-07T09:48:57;2;2;
62846;PMS5003;49477;35.676;139.586;2023-05-07T09:51:29;1;1;
62846;PMS5003;49477;35.676;139.586;2023-05-07T09:54:01;3;3;
62846;PMS5003;49477;35.676;139.586;2023-05-07T09:56:32;1;1;
62846;PMS5003;49477;35.676;139.586;2023-05-07T09:59:01;2;2;
62846;PMS5003;49477;35.676;139.586;2023-05-07T10:01:33;3;3;
62846;PMS5003;49477;35.676;139.586;2023-05-07T10:04:05;2;2;
62846;PMS5003;49477;35.676;139.586;2023-05-07T10:06:35;1;1;
62846;PMS5003;49477;35.676;139.586;2023-05-07T10:09:05;2;2;
62846;PMS5003;49477;35.676;139.586;2023-05-07T10:11:35;1;0;
62846;PMS5003;49477;35.676;139.586;2023-05-07T10:14:04;2;2;
62846;PMS5003;49477;35.676;139.586;2023-05-07T10:16:35;2;2;
62846;PMS5003;49477;35.676;139.586;2023-05-07T10:19:05;1;1;
62846;PMS5003;49477;35.676;139.586;2023-05-07T10:21:36;2;1;
62846;PMS5003;49477;35.676;139.586;2023-05-07T10:24:08;3;3;
62846;PMS5003;49477;35.676;139.586;2023-05-07T10:26:45;3;3;
62846;PMS5003;49477;35.676;139.586;2023-05-07T10:29:21;4;4;
62846;PMS5003;49477;35.676;139.586;2023-05-07T10:32:02;5;5;
62846;PMS5003;49477;35.676;139.586;2023-05-07T10:34:45;3;3;
62846;PMS5003;49477;35.676;139.586;2023-05-07T10:37:18;3;2;
62846;PMS5003;49477;35.676;139.586;2023-05-07T10:39:49;4;2;
62846;PMS5003;49477;35.676;139.586;2023-05-07T10:42:18;3;3;
62846;PMS5003;49477;35.676;139.586;2023-05-07T10:44:48;1;1;
62846;PMS5003;49477;35.676;139.586;2023-05-07T10:47:17;5;2;
62846;PMS5003;49477;35.676;139.586;2023-05-07T10:50:25;3;3;
62846;PMS5003;49477;35.676;139.586;2023-05-07T10:53:20;2;2;
62846;PMS5003;49477;35.676;139.586;2023-05-07T10:55:51;2;2;
62846;PMS5003;49477;35.676;139.586;2023-05-07T10:58:51;1;1;
62846;PMS5003;49477;35.676;139.586;2023-05-07T11:01:53;1;1;
62846;PMS5003;49477;35.676;139.586;2023-05-07T11:04:23;4;2;
62846;PMS5003;49477;35.676;139.586;2023-05-07T11:07:26;3;3;
62846;PMS5003;49477;35.676;139.586;2023-05-07T11:09:59;2;2;
62846;PMS5003;49477;35.676;139.586;2023-05-07T11:13:01;2;2;
62846;PMS5003;49477;35.676;139.586;2023-05-07T11:15:36;3;2;
62846;PMS5003;49477;35.676;139.586;2023-05-07T11:18:12;3;3;
62846;PMS5003;49477;35.676;139.586;2023-05-07T11:20:58;2;2;
62846;PMS5003;49477;35.676;139.586;2023-05-07T11:24:00;2;2;
62846;PMS5003;49477;35.676;139.586;2023-05-07T11:26:30;2;2;
62846;PMS5003;49477;35.676;139.586;2023-05-07T11:29:11;1;1;
62846;PMS5003;49477;35.676;139.586;2023-05-07T11:31:42;3;1;
62846;PMS5003;49477;35.676;139.586;2023-05-07T11:34:15;1;1;
62846;PMS5003;49477;35.676;139.586;2023-05-07T11:36:50;2;2;
62846;PMS5003;49477;35.676;139.586;2023-05-07T11:39:23;2;2;
62846;PMS5003;49477;35.676;139.586;2023-05-07T11:41:54;2;2;
62846;PMS5003;49477;35.676;139.586;2023-05-07T11:44:23;0;0;
62846;PMS5003;49477;35.676;139.586;2023-05-07T11:46:53;0;0;
62846;PMS5003;49477;35.676;139.586;2023-05-07T11:49:24;1;1;
62846;PMS5003;49477;35.676;139.586;2023-05-07T11:51:54;0;0;
62846;PMS5003;49477;35.676;139.586;2023-05-07T11:54:23;1;1;
62846;PMS5003;49477;35.676;139.586;2023-05-07T11:56:53;4;1;
62846;PMS5003;49477;35.676;139.586;2023-05-07T11:59:25;2;2;
62846;PMS5003;49477;35.676;139.586;2023-05-07T12:01:56;1;1;
62846;PMS5003;49477;35.676;139.586;2023-05-07T12:04:25;3;3;
62846;PMS5003;49477;35.676;139.586;2023-05-07T12:06:57;2;2;
62846;PMS5003;49477;35.676;139.586;2023-05-07T12:09:26;2;2;
62846;PMS5003;49477;35.676;139.586;2023-05-07T12:11:56;4;3;
62846;PMS5003;49477;35.676;139.586;2023-05-07T12:14:30;1;1;
62846;PMS5003;49477;35.676;139.586;2023-05-07T12:16:59;1;1;
62846;PMS5003;49477;35.676;139.586;2023-05-07T12:19:29;1;1;
62846;PMS5003;49477;35.676;139.586;2023-05-07T12:21:59;0;0;
62846;PMS5003;49477;35.676;139.586;2023-05-07T12:24:42;1;1;
62846;PMS5003;49477;35.676;139.586;2023-05-07T12:27:12;2;0;
62846;PMS5003;49477;35.676;139.586;2023-05-07T12:29:44;1;1;
62846;PMS5003;49477;35.676;139.586;2023-05-07T12:32:14;3;1;
62846;PMS5003;49477;35.676;139.586;2023-05-07T12:34:43;2;1;
62846;PMS5003;49477;35.676;139.586;2023-05-07T12:37:12;2;2;
62846;PMS5003;49477;35.676;139.586;2023-05-07T12:39:47;3;3;
62846;PMS5003;49477;35.676;139.586;2023-05-07T12:42:19;1;1;
62846;PMS5003;49477;35.676;139.586;2023-05-07T12:44:49;2;2;
62846;PMS5003;49477;35.676;139.586;2023-05-07T12:47:19;1;1;
62846;PMS5003;49477;35.676;139.586;2023-05-07T12:49:49;1;1;
62846;PMS5003;49477;35.676;139.586;2023-05-07T12:52:18;1;1;
62846;PMS5003;49477;35.676;139.586;2023-05-07T12:54:48;2;0;
62846;PMS5003;49477;35.676;139.586;2023-05-07T12:57:18;2;2;
62846;PMS5003;49477;35.676;139.586;2023-05-07T12:59:48;2;1;
62846;PMS5003;49477;35.676;139.586;2023-05-07T13:02:17;1;1;
62846;PMS5003;49477;35.676;139.586;2023-05-07T13:04:47;1;1;
62846;PMS5003;49477;35.676;139.586;2023-05-07T13:07:16;1;1;
62846;PMS5003;49477;35.676;139.586;2023-05-07T13:09:46;2;2;
62846;PMS5003;49477;35.676;139.586;2023-05-07T13:12:15;4;1;
62846;PMS5003;49477;35.676;139.586;2023-05-07T13:14:45;3;2;
62846;PMS5003;49477;35.676;139.586;2023-05-07T13:17:15;3;3;
62846;PMS5003;49477;35.676;139.586;2023-05-07T13:19:45;2;2;
62846;PMS5003;49477;35.676;139.586;2023-05-07T13:22:15;2;1;
62846;PMS5003;49477;35.676;139.586;2023-05-07T13:24:44;0;0;
62846;PMS5003;49477;35.676;139.586;2023-05-07T13:27:13;3;2;
62846;PMS5003;49477;35.676;139.586;2023-05-07T13:29:53;2;1;
62846;PMS5003;49477;35.676;139.586;2023-05-07T13:32:23;1;1;
62846;PMS5003;49477;35.676;139.586;2023-05-07T13:34:52;3;3;
62846;PMS5003;49477;35.676;139.586;2023-05-07T13:37:22;1;1;
62846;PMS5003;49477;35.676;139.586;2023-05-07T13:39:56;4;2;
62846;PMS5003;49477;35.676;139.586;2023-05-07T13:42:26;2;2;
62846;PMS5003;49477;35.676;139.586;2023-05-07T13:44:55;2;2;
62846;PMS5003;49477;35.676;139.586;2023-05-07T13:47:25;2;2;
62846;PMS5003;49477;35.676;139.586;2023-05-07T13:49:54;4;4;
62846;PMS5003;49477;35.676;139.586;2023-05-07T13:52:24;0;0;
62846;PMS5003;49477;35.676;139.586;2023-05-07T13:54:53;2;2;
62846;PMS5003;49477;35.676;139.586;2023-05-07T13:57:23;2;2;
62846;PMS5003;49477;35.676;139.586;2023-05-07T13:59:52;1;1;
62846;PMS5003;49477;35.676;139.586;2023-05-07T14:02:22;2;2;
62846;PMS5003;49477;35.676;139.586;2023-05-07T14:04:51;1;1;
62846;PMS5003;49477;35.676;139.586;2023-05-07T14:07:21;2;1;
62846;PMS5003;49477;35.676;139.586;2023-05-07T14:09:56;1;1;
62846;PMS5003;49477;35.676;139.586;2023-05-07T14:12:26;2;2;
62846;PMS5003;49477;35.676;139.586;2023-05-07T14:14:55;4;2;
62846;PMS5003;49477;35.676;139.586;2023-05-07T14:17:25;2;2;
62846;PMS5003;49477;35.676;139.586;2023-05-07T14:19:55;1;1;
62846;PMS5003;49477;35.676;139.586;2023-05-07T14:22:24;2;1;
62846;PMS5003;49477;35.676;139.586;2023-05-07T14:24:54;1;1;
62846;PMS5003;49477;35.676;139.586;2023-05-07T14:27:23;1;1;
62846;PMS5003;49477;35.676;139.586;2023-05-07T14:29:53;1;1;
62846;PMS5003;49477;35.676;139.586;2023-05-07T14:32:22;1;1;
62846;PMS5003;49477;35.676;139.586;2023-05-07T14:34:52;1;1;
62846;PMS5003;49477;35.676;139.586;2023-05-07T14:37:21;1;1;
62846;PMS5003;49477;35.676;139.586;2023-05-07T14:39:51;1;1;
62846;PMS5003;49477;35.676;139.586;2023-05-07T14:42:20;2;2;
62846;PMS5003;49477;35.676;139.586;2023-05-07T14:44:50;3;2;
62846;PMS5003;49477;35.676;139.586;2023-05-07T14:47:19;2;1;
62846;PMS5003;49477;35.676;139.586;2023-05-07T14:49:50;1;1;
62846;PMS5003;49477;35.676;139.586;2023-05-07T14:52:19;0;0;
62846;PMS5003;49477;35.676;139.586;2023-05-07T14:54:49;0;0;
62846;PMS5003;49477;35.676;139.586;2023-05-07T14:57:18;1;0;
62846;PMS5003;49477;35.676;139.586;2023-05-07T14:59:48;2;2;
62846;PMS5003;49477;35.676;139.586;2023-05-07T15:02:17;0;0;
62846;PMS5003;49477;35.676;139.586;2023-05-07T15:04:47;1;1;
62846;PMS5003;49477;35.676;139.586;2023-05-07T15:07:16;0;0;
62846;PMS5003;49477;35.676;139.586;2023-05-07T15:09:47;0;0;
62846;PMS5003;49477;35.676;139.586;2023-05-07T15:12:16;0;0;
62846;PMS5003;49477;35.676;139.586;2023-05-07T15:14:47;1;1;
62846;PMS5003;49477;35.676;139.586;2023-05-07T15:17:16;1;1;
62846;PMS5003;49477;35.676;139.586;2023-05-07T15:19:45;0;0;
62846;PMS5003;49477;35.676;139.586;2023-05-07T15:22:15;1;1;
62846;PMS5003;49477;35.676;139.586;2023-05-07T15:24:45;2;1;
62846;PMS5003;49477;35.676;139.586;2023-05-07T15:27:14;0;0;
62846;PMS5003;49477;35.676;139.586;2023-05-07T15:29:44;0;0;
62846;PMS5003;49477;35.676;139.586;2023-05-07T15:32:14;1;1;
62846;PMS5003;49477;35.676;139.586;2023-05-07T15:34:43;2;2;
62846;PMS5003;49477;35.676;139.586;2023-05-07T15:37:13;1;1;
62846;PMS5003;49477;35.676;139.586;2023-05-07T15:39:42;1;1;
62846;PMS5003;49477;35.676;139.586;2023-05-07T15:42:12;1;1;
62846;PMS5003;49477;35.676;139.586;2023-05-07T15:44:41;2;2;
62846;PMS5003;49477;35.676;139.586;2023-05-07T15:47:11;1;1;
62846;PMS5003;49477;35.676;139.586;2023-05-07T15:49:40;1;1;
62846;PMS5003;49477;35.676;139.586;2023-05-07T15:52:10;1;1;
62846;PMS5003;49477;35.676;139.586;2023-05-07T15:54:40;0;0;
62846;PMS5003;49477;35.676;139.586;2023-05-07T15:57:09;1;1;
62846;PMS5003;49477;35.676;139.586;2023-05-07T15:59:39;1;1;
62846;PMS5003;49477;35.676;139.586;2023-05-07T16:02:08;2;2;
62846;PMS5003;49477;35.676;139.586;2023-05-07T16:04:38;2;1;
62846;PMS5003;49477;35.676;139.586;2023-05-07T16:07:07;0;0;
62846;PMS5003;49477;35.676;139.586;2023-05-07T16:09:37;2;1;
62846;PMS5003;49477;35.676;139.586;2023-05-07T16:12:06;1;1;
62846;PMS5003;49477;35.676;139.586;2023-05-07T16:14:36;0;0;
62846;PMS5003;49477;35.676;139.586;2023-05-07T16:17:06;3;2;
62846;PMS5003;49477;35.676;139.586;2023-05-07T16:19:35;1;1;
62846;PMS5003;49477;35.676;139.586;2023-05-07T16:22:05;1;1;
62846;PMS5003;49477;35.676;139.586;2023-05-07T16:24:35;1;1;
62846;PMS5003;49477;35.676;139.586;2023-05-07T16:27:04;1;1;
62846;PMS5003;49477;35.676;139.586;2023-05-07T16:29:34;0;0;
62846;PMS5003;49477;35.676;139.586;2023-05-07T16:32:03;1;1;
62846;PMS5003;49477;35.676;139.586;2023-05-07T16:34:33;0;0;
62846;PMS5003;49477;35.676;139.586;2023-05-07T16:37:02;0;0;
62846;PMS5003;49477;35.676;139.586;2023-05-07T16:39:32;1;1;
62846;PMS5003;49477;35.676;139.586;2023-05-07T16:42:01;0;0;